Danny C — WBE8593 — position and weather

sailwx.info

Track history (hours):
 
Tides and Currents Weather Stations Pressure Air Temp Water Temp Dewpoint Dewpoint Depression Visibility Wind Speed Wind Dir Waves Ship Positions

Danny C

Owner: CASTAGNOLA, ANGELO B, SANTA BARBARA, CA. More information available from US FCC via Universal Licensing System and Coast Guard Vessel Documentation Center.

Last reported at 2018-Jun-18 01:34 UTC. Time now 2018-Jun-19 04:23 UTC.
Position N 34°24' W 119°42'.

Length 26 m.

MMSI: 338031982.

Date/timePositionNaut miles runAvg speedWind from/ knotsBaromVisibWave heightAir tempDewpointWater temp
2018-Jun-18 01:34N 34°24' W 119°42'0 0.0
2018-Jun-18 01:27N 34°24' W 119°42'0 0.0
2018-Jun-18 00:58N 34°24' W 119°42'0 0.0
2018-Jun-18 00:29N 34°24' W 119°42'1 2.9
2018-Jun-18 00:00N 34°23' W 119°40'5 9.1
2018-Jun-17 23:26N 34°18' W 119°38'4 9.3
2018-Jun-17 23:00N 34°15' W 119°37'5 9.2
2018-Jun-17 22:29N 34°10' W 119°35'7 9.3
2018-Jun-17 21:44N 34°04' W 119°32'3 7.4
2018-Jun-17 21:23N 34°01' W 119°32'0 0.2
2018-Jun-17 21:00N 34°01' W 119°33'0 0.0
2018-Jun-17 20:30N 34°01' W 119°33'2 2.2
2018-Jun-17 19:21N 33°59' W 119°34'3 8.8
2018-Jun-17 18:58N 33°58' W 119°38'6 0.2
2018-Jun-16 16:15N 34°00' W 119°32'2 8.5
2018-Jun-16 16:01N 34°02' W 119°31'5 8.9
2018-Jun-16 15:30N 34°07' W 119°33'4 8.5
2018-Jun-16 15:00N 34°10' W 119°34'4 8.5
2018-Jun-16 14:31N 34°14' W 119°36'4 8.8
2018-Jun-16 14:00N 34°19' W 119°38'4 8.9
2018-Jun-16 13:30N 34°23' W 119°40'  
Track history (hours):
 
Tides and Currents Weather Stations Pressure Air Temp Water Temp Dewpoint Dewpoint Depression Visibility Wind Speed Wind Dir Waves Ship Positions

Danny C

Owner: CASTAGNOLA, ANGELO B, SANTA BARBARA, CA. More information available from US FCC via Universal Licensing System and Coast Guard Vessel Documentation Center.

Last reported at 2018-Jun-18 01:34 UTC. Time now 2018-Jun-19 04:23 UTC.
Position N 34°24' W 119°42'.

Length 26 m.

MMSI: 338031982.

Date/timePositionNaut miles runAvg speedWind from/ knotsBaromVisibWave heightAir tempDewpointWater temp
2018-Jun-18 01:34N 34°24' W 119°42'0 0.0
2018-Jun-18 01:27N 34°24' W 119°42'0 0.0
2018-Jun-18 00:58N 34°24' W 119°42'0 0.0
2018-Jun-18 00:29N 34°24' W 119°42'1 2.9
2018-Jun-18 00:00N 34°23' W 119°40'5 9.1
2018-Jun-17 23:26N 34°18' W 119°38'4 9.3
2018-Jun-17 23:00N 34°15' W 119°37'5 9.2
2018-Jun-17 22:29N 34°10' W 119°35'7 9.3
2018-Jun-17 21:44N 34°04' W 119°32'3 7.4
2018-Jun-17 21:23N 34°01' W 119°32'0 0.2
2018-Jun-17 21:00N 34°01' W 119°33'0 0.0
2018-Jun-17 20:30N 34°01' W 119°33'2 2.2
2018-Jun-17 19:21N 33°59' W 119°34'3 8.8
2018-Jun-17 18:58N 33°58' W 119°38'6 0.2
2018-Jun-16 16:15N 34°00' W 119°32'2 8.5
2018-Jun-16 16:01N 34°02' W 119°31'5 8.9
2018-Jun-16 15:30N 34°07' W 119°33'4 8.5
2018-Jun-16 15:00N 34°10' W 119°34'4 8.5
2018-Jun-16 14:31N 34°14' W 119°36'4 8.8
2018-Jun-16 14:00N 34°19' W 119°38'4 8.9
2018-Jun-16 13:30N 34°23' W 119°40'  

Dump ship's entire track history